Bell Buckle, Tennessee
Current Conditions -  °F | °C
As of 3:15 PM on Sunday 23 Nov 2014 (Local Time) from KSYI Reporting Station
Broken Clouds Broken Clouds  
Wind Chill: 57°   Ceiling: 3000
Heat Index: 57°   Visibility: 3mi
Dew Point: 57°   Wind: 17mph
Humidity: 100%   Direction: 140°SE
Pressure: 29.51"   Gusts: NA
Location:  35.59°N, 86.35°W
Report Text: KSYI 232115Z AUTO 14015KT 3SM FEW010 SCT020 BKN030 14/14 A2951 RMK
Loading
Personal Weather Stations






























Interactive Weather Map New forecast layout! Learn more

10-Day Weather Forecast

Advertisements
Track Severe Weather on mobile